New Egypt, New Jersey
Current Conditions -  °F | °C
As of 1:58 AM on Sunday 23 Nov 2014 (Local Time) from KWRI Reporting Station
Broken Clouds Broken Clouds  
Wind Chill: 39°   Ceiling: 11000
Heat Index: 39°   Visibility: 10mi
Dew Point: 21°   Wind: 1mph
Humidity: 48%   Direction: 230°SW
Pressure: 30.2"   Gusts: NA
Location:  40.07°N, 74.53°W
Report Text: KWRI 230658Z AUTO 23001KT 10SM BKN110 04/M06 A3020 RMK AO2 SLP231 T00411061
Loading
Personal Weather Stations






























Interactive Weather Map New forecast layout! Learn more

10-Day Weather Forecast

Advertisements
Track Severe Weather on mobile